Airfield :







YOU CAN JOIN US ON...

 
LOGIN :

Register | Disclaimer

   EN    FR    IT 

 









Legend :    VFR   Marginal VFR   IFR   Intensive IFR   Very Intensive IFR
Visi :
Ceiling :
>= 8 km
>= 3000ft
5 to 8 km
1000 to 3000 ft
1500m to 5 km
500 to 1000 ft
800 to 1500m
200 to 500 ft
< 800m
< 200 ft
Symbols :   Thunderstorms  Fog  Heavy snow  Heavy precipitations  Wind > 20 kt






- Airport Elevation : 235 ft
- IATA code : CCS


SVMI - Simon Bolivar

CURRENT METAR :
  • 300602Z AUTO 10004KT NCD ///// Q1015

EXPIRED METARs :
  • 300502Z AUTO 10004KT NCD ///// Q1015
  • 300500Z 14003KT 9999 FEW016 24/22 Q1014
  • 300402Z AUTO 09008KT NCD ///// Q1016

TAF TAF SVMI
Valid from the 30 at 06:00 until the 31 at 06:00 UTC


300400Z 3006/3106 09006KT 9999 SCT016 TX30/19Z TN23/09Z
BECMG 3006/3010 07003KT FEW016 SCT100



MET'MAP, your aeronautical weather chart ! - Copyright ORBIFLY December 2007 - Disclaimer

ORBIFLY MET'MAP TEAM :

Programming & Development : Alexandra Zaïnal
Concept & original design : Baudouin d'Aumeries
Assistance for programming : Marc-Olivier Méhu
Technical & hardware support : Manuel Goepfert

Contact : metmap@orbifly.com




SOURCES & CREDITS :

   NOAA